Inukjuak Airport
CYPH : now visible

Airfield :











YOU CAN JOIN US ON...

 
LOGIN :

Register | Disclaimer

   EN    FR    IT 

 









Legend :    VFR   Marginal VFR   IFR   Intensive IFR   Very Intensive IFR
Visi :
Ceiling :
>= 8 km
>= 3000ft
5 to 8 km
1000 to 3000 ft
1500m to 5 km
500 to 1000 ft
800 to 1500m
200 to 500 ft
< 800m
< 200 ft
Symbols :   Thunderstorms  Fog  Heavy snow  Heavy precipitations  Wind > 20 kt







- Airport Elevation : 83 ft
- IATA code : YPH


CYPH - Inukjuak

CURRENT METAR :
  • 210500Z AUTO 26009KT 9SM BKN016 OVC028 06/04 A3005 RMK SLP180

EXPIRED METARs :
  • 210446Z AUTO 27009KT 9SM SCT018 OVC028 06/03 A3005 RMK SLP180
  • 210442Z AUTO 26009KT 9SM BKN018 OVC028 06/03 A3005 RMK SLP179
  • 210400Z AUTO 27006KT 9SM OVC022 06/03 A3005 RMK SLP179
  • 210300Z AUTO 28007KT 9SM OVC019 06/03 A3005 RMK SLP179

TAF TAF CYPH
Valid from the 21 at 00:00 until the 21 at 12:00 UTC


202338Z 2100/2112 28012KT P6SM FEW009 OVC025
TEMPO 2100/2103 5SM BR OVC007
BECMG 2100/2102 25012KT
FM210300 22012KT 2SM -DZ BR OVC005
TEMPO 2103/2112 6SM BR SCT005 OVC010 RMK FCST BASED ON AUTO OBS. NXT FCST BY 210600Z
No reported NOTAMs for that airfield.



MET'MAP, your aeronautical weather chart ! - Copyright ORBIFLY December 2007 - Disclaimer

ORBIFLY MET'MAP TEAM :

Programming & Development : Alexandra Zaïnal
Concept & Development : Baudouin d'Aumeries
Co-Development & Prog : Marc-Olivier Méhu
Technical & hardware support : Manuel Goepfert

Contact : metmap@orbifly.com




SOURCES & CREDITS :

   NOAA       Earth
Advisory